Data for 04/24/2017

Time Sea-Level Adjusted Pressure Absolute Pressure Temperature Relative Humidity Dew Point   
(mb) (inHg) (mb) (inHg) (C) (F) (%) (C) (F)
00:05 1010 29.83 839 24.78 4.5 40.1 82 1.6 35
00:10 1010 29.83 839 24.78 4.5 40.1 83 1.8 35.3
00:15 1010 29.83 839 24.78 4.6 40.2 85 2.2 36
00:20 1010 29.83 839 24.78 4.3 39.7 86 2.2 36
00:25 1010 29.83 839 24.78 4.1 39.4 87 2.1 35.7
00:30 1010 29.83 839 24.78 4 39.2 87 2 35.7
00:35 1010 29.83 839 24.78 3.9 39 87 2 35.6
00:40 1010 29.83 839 24.78 3.8 38.9 88 2.1 35.7
00:45 1010 29.83 839 24.78 3.8 38.8 88 2 35.7
00:50 1010 29.83 839 24.78 3.7 38.7 88 1.9 35.4
00:55 1010 29.83 839 24.78 3.7 38.6 88 1.9 35.5
01:00 1010 29.83 839 24.78 3.6 38.4 89 1.9 35.4
01:05 1009 29.8 839 24.78 3.5 38.3 89 1.8 35.3
01:10 1009 29.8 839 24.78 3.4 38.2 89 1.8 35.2
01:15 1009 29.8 839 24.78 3.4 38 89 1.7 35.1
01:20 1009 29.8 838 24.75 3.3 38 89 1.6 35
01:25 1009 29.8 838 24.75 3.3 37.9 89 1.6 34.9
01:30 1009 29.8 838 24.75 3.2 37.8 89 1.6 34.8
01:35 1009 29.8 838 24.75 3.1 37.6 89 1.6 34.8
01:40 1009 29.8 838 24.75 3.1 37.6 89 1.5 34.7
01:45 1009 29.8 838 24.75 3.1 37.6 89 1.4 34.6
01:50 1009 29.8 838 24.75 3.1 37.5 88 1.3 34.4
01:55 1009 29.8 838 24.75 3 37.5 88 1.2 34.2
02:00 1009 29.8 838 24.75 3.1 37.6 88 1.3 34.3
02:05 1009 29.8 838 24.75 3.1 37.6 89 1.4 34.5
02:10 1009 29.8 838 24.75 3.1 37.6 88 1.4 34.5
02:15 1008 29.77 838 24.75 3.1 37.6 89 1.4 34.5
02:20 1008 29.77 838 24.75 3.2 37.7 88 1.3 34.4
02:25 1008 29.77 838 24.75 3.2 37.7 88 1.4 34.4
02:30 1008 29.77 838 24.75 3 37.4 89 1.3 34.4
02:35 1008 29.77 837 24.72 2.9 37.2 89 1.3 34.3
02:40 1008 29.77 837 24.72 2.9 37.3 89 1.3 34.3
02:45 1008 29.77 837 24.72 3 37.3 88 1.2 34.2
02:50 1008 29.77 837 24.72 3 37.4 88 1.3 34.3
02:55 1008 29.77 837 24.72 3.1 37.5 88 1.2 34.2
03:00 1008 29.77 837 24.72 3.2 37.7 87 1.2 34.1
03:05 1008 29.77 837 24.72 3.2 37.8 86 1.1 34
03:10 1008 29.77 837 24.72 3.2 37.8 86 1.1 34
03:15 1008 29.77 837 24.72 3.2 37.8 86 1.1 33.9
03:20 1008 29.77 837 24.72 3.2 37.7 86 1 33.9
03:25 1008 29.77 837 24.72 3.1 37.6 86 1 33.8
03:30 1008 29.77 837 24.72 3.1 37.6 86 0.9 33.7
03:35 1008 29.77 837 24.72 3.1 37.7 85 0.9 33.7
03:40 1008 29.77 837 24.72 3.2 37.7 85 0.9 33.6
03:45 1008 29.77 837 24.72 3.1 37.6 85 0.9 33.5
03:50 1008 29.77 837 24.72 3 37.3 86 0.8 33.4
03:55 1008 29.77 837 24.72 2.8 37.1 86 0.8 33.4
04:00 1008 29.77 837 24.72 2.7 36.9 87 0.8 33.5
04:05 1008 29.77 837 24.72 2.7 36.9 87 0.8 33.4
04:10 1008 29.77 837 24.72 2.7 36.9 87 0.7 33.3
04:15 1008 29.77 837 24.72 2.8 37 86 0.7 33.2
04:20 1008 29.77 837 24.72 2.9 37.1 86 0.7 33.3
04:25 1008 29.77 837 24.72 2.9 37.2 86 0.7 33.3
04:30 1008 29.77 837 24.72 2.9 37.2 85 0.6 33
04:35 1008 29.77 837 24.72 2.9 37.2 84 0.5 32.9
04:40 1008 29.77 837 24.72 2.9 37.3 84 0.5 32.9
04:45 1008 29.77 838 24.75 3 37.3 84 0.4 32.8
04:50 1008 29.77 838 24.75 3 37.4 83 0.4 32.6
04:55 1008 29.77 838 24.75 3 37.4 83 0.5 32.8
05:00 1008 29.77 838 24.75 3.1 37.7 84 0.6 33.2
05:05 1008 29.77 838 24.75 3.2 37.8 84 0.8 33.4
05:10 1008 29.77 838 24.75 3.1 37.5 85 0.8 33.4
05:15 1008 29.77 838 24.75 3 37.4 85 0.7 33.3
05:20 1008 29.77 838 24.75 2.9 37.3 86 0.8 33.5
05:25 1008 29.77 838 24.75 2.9 37.3 87 1 33.9
05:30 1008 29.77 838 24.75 2.9 37.2 88 1.1 33.9
05:35 1008 29.77 838 24.75 2.7 36.9 89 1.1 34
05:40 1008 29.77 838 24.75 2.8 37 89 1.2 34.1
05:45 1008 29.77 838 24.75 3 37.3 89 1.4 34.5
05:50 1008 29.77 838 24.75 3.1 37.6 89 1.5 34.8
05:55 1009 29.8 838 24.75 3.2 37.8 90 1.7 35
06:00 1009 29.8 838 24.75 3.3 38 90 1.8 35.3
06:05 1009 29.8 838 24.75 3.4 38.2 90 1.9 35.4
06:10 1009 29.8 838 24.75 3.5 38.4 90 2 35.6
06:15 1009 29.8 838 24.75 3.6 38.5 90 2.1 35.7
06:20 1008 29.77 838 24.75 3.6 38.5 89 2 35.6
06:25 1008 29.77 838 24.75 3.5 38.3 89 1.9 35.4
06:30 1008 29.77 838 24.75 3.5 38.3 89 1.9 35.4
06:35 1008 29.77 838 24.75 3.5 38.3 90 1.9 35.5
06:40 1009 29.8 838 24.75 3.4 38.1 90 1.9 35.4
06:45 1009 29.8 838 24.75 3.2 37.8 90 1.7 35.1
06:50 1009 29.8 838 24.75 3.1 37.6 90 1.6 34.9
06:55 1009 29.8 838 24.75 3.1 37.5 90 1.5 34.7
07:00 1009 29.8 838 24.75 3 37.4 90 1.5 34.7
07:05 1009 29.8 838 24.75 3 37.4 90 1.5 34.6
07:10 1009 29.8 838 24.75 3 37.4 90 1.5 34.7
07:15 1009 29.8 838 24.75 3 37.4 89 1.4 34.5
07:20 1009 29.8 838 24.75 3 37.4 89 1.3 34.4
07:25 1009 29.8 838 24.75 3 37.5 89 1.4 34.5
07:30 1009 29.8 838 24.75 3.1 37.6 89 1.4 34.6
07:35 1009 29.8 838 24.75 3.2 37.8 88 1.4 34.6
07:40 1009 29.8 838 24.75 3.2 37.8 87 1.3 34.3
07:45 1009 29.8 838 24.75 2.8 37 87 0.7 33.3
07:50 1009 29.8 838 24.75 2.3 36.2 88 0.6 33.1
07:55 1009 29.8 838 24.75 2.3 36.1 88 0.5 32.9
08:00 1009 29.8 838 24.75 2.4 36.3 87 0.5 32.9
08:05 1009 29.8 838 24.75 2.5 36.5 87 0.5 32.9
08:10 1009 29.8 838 24.75 2.7 36.8 87 0.6 33.1
08:15 1009 29.8 838 24.75 2.8 37.1 84 0.4 32.7
08:20 1009 29.8 838 24.75 2.9 37.2 85 0.6 33
08:25 1009 29.8 838 24.75 3.2 37.7 83 0.6 33
08:30 1009 29.8 838 24.75 3.4 38.1 80 0.3 32.6
08:35 1009 29.8 838 24.75 3.4 38.1 81 0.4 32.7
08:40 1009 29.8 838 24.75 3.5 38.2 82 0.7 33.3
08:45 1008 29.77 838 24.75 3.7 38.6 80 0.5 32.8
08:50 1008 29.77 838 24.75 3.7 38.7 83 1.1 34
08:55 1008 29.77 837 24.72 3.8 38.9 79 0.6 33.1
09:00 1008 29.77 837 24.72 3.8 38.8 81 0.8 33.4
09:05 1008 29.77 837 24.72 4.3 39.7 76 0.5 32.9
09:10 1008 29.77 837 24.72 4.4 39.9 77 0.8 33.4
09:15 1008 29.77 837 24.72 4.7 40.5 79 1.4 34.5
09:20 1008 29.77 837 24.72 5.6 42 79 2.2 36
09:25 1008 29.77 837 24.72 6.2 43.1 75 2.1 35.7
09:30 1008 29.77 837 24.72 6.9 44.4 68 1.5 34.7
09:35 1008 29.77 837 24.72 7.3 45.1 68 1.7 35.1
09:40 1008 29.77 837 24.72 6.8 44.2 68 1.4 34.5
09:45 1008 29.77 837 24.72 6.7 44.1 67 1 33.8
09:50 1008 29.77 837 24.72 7 44.7 64 0.7 33.2
09:55 1008 29.77 837 24.72 6.6 44 65 0.5 32.9
10:00 1008 29.77 837 24.72 6.7 44 63 0.2 32.3
10:05 1008 29.77 837 24.72 6.5 43.7 63 -0 31.9
10:10 1008 29.77 837 24.72 6.6 43.8 63 0.1 32.2
10:15 1008 29.77 837 24.72 7.2 45 61 0.2 32.4
10:20 1008 29.77 837 24.72 7.9 46.2 56 -0.4 31.3
10:25 1008 29.77 837 24.72 8.1 46.5 56 -0 31.9
10:30 1008 29.77 837 24.72 7.9 46.1 52 -1.3 29.7
10:35 1007 29.74 837 24.72 7.6 45.7 55 -0.9 30.5
10:40 1007 29.74 837 24.72 8.4 47.2 52 -0.8 30.6
10:45 1007 29.74 837 24.72 9 48.3 49 -1 30.1
10:50 1007 29.74 837 24.72 9.1 48.5 50 -0.6 31
10:55 1007 29.74 837 24.72 8.9 48 49 -1.1 30
11:00 1007 29.74 836 24.69 8 46.5 54 -0.8 30.6
11:05 1007 29.74 836 24.69 7.8 46 53 -1.1 30
11:10 1007 29.74 836 24.69 8.8 47.8 50 -1 30.2
11:15 1007 29.74 836 24.69 8.9 47.9 50 -1 30.1
11:20 1007 29.74 836 24.69 9.1 48.5 51 -0.5 31.1
11:25 1007 29.74 836 24.69 9.3 48.7 49 -0.8 30.6
11:30 1007 29.74 836 24.69 9.7 49.4 48 -0.7 30.7
11:35 1007 29.74 836 24.69 10.2 50.3 44 -1.6 29.2
11:40 1007 29.74 836 24.69 10.4 50.7 44 -1.3 29.6
11:45 1007 29.74 836 24.69 9.4 48.8 47 -1.4 29.5
11:50 1007 29.74 836 24.69 10.2 50.3 45 -1.1 30.1
11:55 1007 29.74 836 24.69 10.7 51.3 44 -0.9 30.4
12:00 1007 29.74 836 24.69 10.3 50.6 45 -1.1 30
12:05 1007 29.74 836 24.69 11 51.8 41 -1.9 28.7
12:10 1006 29.71 836 24.69 11 51.8 42 -1.5 29.3
12:15 1006 29.71 836 24.69 10.5 50.9 45 -0.8 30.6
12:20 1006 29.71 836 24.69 10.6 51 43 -1.4 29.4
12:25 1006 29.71 836 24.69 11.4 52.6 40 -1.6 29.1
12:30 1006 29.71 835 24.66 11.1 52.1 44 -0.7 30.7
12:35 1006 29.71 835 24.66 10.5 50.8 41 -2.2 28.1
12:40 1006 29.71 835 24.66 10.3 50.6 44 -1.3 29.6
12:45 1006 29.71 835 24.66 10.5 51 43 -1.6 29.1
12:50 1006 29.71 835 24.66 11 51.8 39 -2.4 27.7
12:55 1006 29.71 835 24.66 10.6 51 41 -2 28.4
13:00 1006 29.71 835 24.66 10.6 51 38 -3.1 26.4
13:05 1006 29.71 835 24.66 11.2 52.2 39 -2.1 28.2
13:10 1006 29.71 835 24.66 11.3 52.4 40 -1.6 29.1
13:15 1006 29.71 835 24.66 11.9 53.4 38 -1.8 28.7
13:20 1006 29.71 835 24.66 11.2 52.1 37 -3 26.6
13:25 1006 29.71 835 24.66 11 51.7 39 -2.4 27.7
13:30 1006 29.71 835 24.66 11.1 51.9 38 -2.7 27.1
13:35 1006 29.71 835 24.66 11.2 52.2 37 -2.9 26.8
13:40 1006 29.71 835 24.66 11.6 52.8 35 -3.2 26.2
13:45 1006 29.71 835 24.66 11.6 52.9 37 -2.6 27.3
13:50 1006 29.71 835 24.66 11.7 53.1 38 -2.2 28
13:55 1006 29.71 835 24.66 11.4 52.4 39 -2 28.5
14:00 1006 29.71 835 24.66 11.4 52.4 38 -2.3 27.8
14:05 1006 29.71 835 24.66 11.5 52.7 39 -1.9 28.6
14:10 1006 29.71 835 24.66 11 51.9 42 -1.5 29.4
14:15 1005 29.68 835 24.66 10.6 51.1 42 -1.8 28.7
14:20 1005 29.68 835 24.66 11.1 52 40 -2 28.4
14:25 1005 29.68 835 24.66 11.4 52.5 38 -2.4 27.6
14:30 1005 29.68 834 24.63 11 51.8 42 -1.5 29.2
14:35 1005 29.68 834 24.63 10.6 51.1 40 -2.3 27.9
14:40 1005 29.68 834 24.63 11.5 52.7 38 -2.4 27.7
14:45 1005 29.68 834 24.63 11.5 52.7 39 -1.9 28.5
14:50 1005 29.68 834 24.63 11.5 52.7 39 -1.8 28.7
14:55 1005 29.68 834 24.63 11.2 52.2 40 -1.8 28.8
15:00 1005 29.68 834 24.63 11.2 52.1 40 -1.7 28.9
15:05 1005 29.68 834 24.63 11.7 53 38 -2.1 28.3
15:10 1005 29.68 834 24.63 11.8 53.2 38 -1.9 28.5
15:15 1005 29.68 834 24.63 11.8 53.3 37 -2.2 28
15:20 1005 29.68 834 24.63 11.7 53.1 39 -1.9 28.6
15:25 1005 29.68 834 24.63 11.7 53 38 -2.1 28.2
15:30 1005 29.68 834 24.63 11.6 52.9 39 -1.9 28.5
15:35 1005 29.68 834 24.63 11.7 53.1 38 -2 28.4
15:40 1005 29.68 834 24.63 11.3 52.3 40 -1.8 28.8
15:45 1005 29.68 834 24.63 11.1 52 39 -2.2 28
15:50 1005 29.68 834 24.63 11.2 52.1 40 -2 28.4
15:55 1005 29.68 834 24.63 11.1 51.9 39 -2.3 27.9
16:00 1005 29.68 834 24.63 10.7 51.3 41 -2.1 28.3
16:05 1005 29.68 834 24.63 10.6 51 40 -2.4 27.7
16:10 1005 29.68 834 24.63 10.2 50.4 42 -1.9 28.5
16:15 1005 29.68 834 24.63 10.4 50.8 43 -1.7 29
16:20 1005 29.68 834 24.63 10.3 50.6 48 -0.2 31.7
16:25 1005 29.68 834 24.63 9.3 48.7 57 1.1 34
16:30 1005 29.68 834 24.63 8.6 47.5 58 0.9 33.6
16:35 1005 29.68 834 24.63 8.5 47.3 58 0.7 33.3
16:40 1005 29.68 834 24.63 8.4 47.2 58 0.7 33.3
16:45 1005 29.68 834 24.63 8.1 46.5 60 0.7 33.3
16:50 1005 29.68 834 24.63 8 46.3 60 0.7 33.2
16:55 1005 29.68 834 24.63 7.9 46.1 63 1.3 34.4
17:00 1005 29.68 834 24.63 7.8 46 63 1.1 34
17:05 1005 29.68 834 24.63 7.7 45.9 64 1.3 34.3
17:10 1005 29.68 834 24.63 7.6 45.6 64 1.1 34.1
17:15 1005 29.68 834 24.63 7.8 46 62 0.9 33.6
17:20 1005 29.68 834 24.63 7.8 46.1 62 1 33.8
17:25 1005 29.68 834 24.63 7.7 45.9 62 0.8 33.5
17:30 1005 29.68 834 24.63 7.7 45.9 62 0.8 33.5
17:35 1005 29.68 834 24.63 7.9 46.3 60 0.6 33.1
17:40 1005 29.68 834 24.63 7.9 46.2 60 0.7 33.3
17:45 1005 29.68 834 24.63 7.8 46 59 0.2 32.4
17:50 1005 29.68 834 24.63 7.7 45.8 59 0.2 32.4
17:55 1005 29.68 834 24.63 7.7 45.8 58 0 32.1
18:00 1005 29.68 834 24.63 7.8 46 59 0.2 32.4
18:05 1005 29.68 834 24.63 7.8 46 59 0.2 32.4
18:10 1005 29.68 834 24.63 7.8 46 58 0 32
18:15 1005 29.68 834 24.63 7.9 46.1 57 -0.2 31.7
18:20 1005 29.68 834 24.63 7.9 46.2 57 0 32
18:25 1005 29.68 834 24.63 7.9 46.2 57 -0.1 31.8
18:30 1005 29.68 834 24.63 7.8 46.1 58 0.2 32.4
18:35 1005 29.68 834 24.63 7.5 45.4 65 1.3 34.3
18:40 1005 29.68 834 24.63 7.2 44.9 65 1.1 34
18:45 1005 29.68 834 24.63 7 44.6 68 1.5 34.6
18:50 1005 29.68 834 24.63 6.7 44.1 68 1.3 34.3
18:55 1005 29.68 834 24.63 6.6 43.9 69 1.3 34.4
19:00 1005 29.68 834 24.63 6.7 44 67 0.9 33.6
19:05 1005 29.68 834 24.63 6.8 44.2 66 0.8 33.5
19:10 1005 29.68 834 24.63 6.8 44.3 65 0.7 33.3
19:15 1005 29.68 834 24.63 6.8 44.2 65 0.8 33.4
19:20 1005 29.68 834 24.63 6.8 44.2 65 0.8 33.4
19:25 1005 29.68 834 24.63 6.7 44.1 65 0.7 33.3
19:30 1005 29.68 834 24.63 6.5 43.7 65 0.4 32.6
19:35 1005 29.68 835 24.66 6.4 43.6 64 0.1 32.2
19:40 1005 29.68 835 24.66 6.5 43.7 63 -0.1 31.8
19:45 1005 29.68 835 24.66 6.6 43.9 61 -0.4 31.3
19:50 1006 29.71 835 24.66 6.6 43.9 60 -0.5 31.2
19:55 1006 29.71 835 24.66 6.6 43.8 62 -0.2 31.6
20:00 1006 29.71 835 24.66 6.5 43.6 63 -0 31.9
20:05 1006 29.71 835 24.66 6.3 43.4 64 0 32
20:10 1006 29.71 835 24.66 6.4 43.4 63 -0.1 31.8
20:15 1006 29.71 835 24.66 6.2 43.2 65 0.1 32.2
20:20 1006 29.71 835 24.66 6.1 42.9 66 0.2 32.4
20:25 1006 29.71 835 24.66 5.9 42.6 67 0.2 32.3
20:30 1006 29.71 835 24.66 5.8 42.5 67 0.2 32.4
20:35 1006 29.71 835 24.66 5.8 42.4 67 0.2 32.3
20:40 1006 29.71 835 24.66 5.8 42.4 67 0.2 32.3
20:45 1006 29.71 835 24.66 5.7 42.2 69 0.4 32.8
20:50 1006 29.71 835 24.66 5.4 41.7 71 0.6 33.1
20:55 1006 29.71 835 24.66 5.3 41.5 72 0.6 33.1
21:00 1006 29.71 835 24.66 5.2 41.4 71 0.5 32.8
21:05 1006 29.71 835 24.66 5.3 41.6 71 0.4 32.8
21:10 1006 29.71 835 24.66 5.5 41.9 70 0.6 33
21:15 1006 29.71 835 24.66 5.5 41.9 71 0.7 33.2
21:20 1006 29.71 835 24.66 5.5 42 71 0.7 33.3
21:25 1006 29.71 835 24.66 5.5 41.9 72 0.9 33.6
21:30 1006 29.71 835 24.66 5.5 42 73 1 33.8
21:35 1006 29.71 836 24.69 5.6 42.1 73 1.1 34
21:40 1006 29.71 836 24.69 5.7 42.3 72 1 33.8
21:45 1006 29.71 836 24.69 5.9 42.6 69 0.7 33.2
21:50 1006 29.71 836 24.69 5.9 42.7 69 0.8 33.4
21:55 1007 29.74 836 24.69 5.9 42.6 70 0.9 33.7
22:00 1007 29.74 836 24.69 5.9 42.5 70 0.9 33.6
22:05 1007 29.74 836 24.69 5.9 42.6 70 0.8 33.5
22:10 1007 29.74 836 24.69 5.9 42.6 72 1.2 34.2
22:15 1007 29.74 836 24.69 5.8 42.4 73 1.3 34.3
22:20 1007 29.74 836 24.69 5.6 42.1 74 1.3 34.3
22:25 1007 29.74 836 24.69 5.4 41.8 74 1.2 34.2
22:30 1007 29.74 836 24.69 5.5 41.8 73 1.1 33.9
22:35 1007 29.74 836 24.69 5.4 41.7 73 1 33.8
22:40 1007 29.74 836 24.69 5.5 41.8 74 1.2 34.2
22:45 1007 29.74 836 24.69 5.3 41.6 75 1.3 34.4
22:50 1007 29.74 836 24.69 5.2 41.4 75 1.2 34.1
22:55 1007 29.74 836 24.69 5.1 41.2 75 1.1 34
23:00 1007 29.74 836 24.69 4.8 40.6 78 1.3 34.3
23:05 1007 29.74 836 24.69 4.6 40.3 79 1.3 34.3
23:10 1007 29.74 836 24.69 4.5 40.1 79 1.2 34.2
23:15 1007 29.74 836 24.69 4.5 40.1 79 1.2 34.2
23:20 1007 29.74 836 24.69 4.5 40 80 1.3 34.3
23:25 1007 29.74 836 24.69 4.5 40.1 81 1.5 34.6
23:30 1007 29.74 836 24.69 4.4 39.9 81 1.5 34.7
23:35 1007 29.74 836 24.69 4.4 39.8 82 1.5 34.7
23:40 1007 29.74 836 24.69 4.2 39.6 84 1.7 35.1
23:45 1007 29.74 836 24.69 4.2 39.5 84 1.7 35.1
23:50 1007 29.74 836 24.69 4.1 39.5 84 1.7 35.1
23:55 1007 29.74 836 24.69 4.3 39.7 82 1.5 34.8
24:00 1007 29.74 836 24.69 4.5 40 83 1.8 35.2